Tiempo atmosférico en la estación meteorológica de Ibias, San Antolin, Asturias (762 m.)



Fecha
DESCASC
Temp. máxima en grados centígrados (hora)
DESCASC
Temp. mínima en grados centígrados (hora)
DESCASC
Temp. media en grados centígrados
DESCASC
Racha de viento máxima en m/sg (hora)
DESCASC
Velocidad máxima media en intervalos de 10 minutos(hora)
DESCASC
Precipitaciones diarias en mm
DESCASC
Precipitaciones de 00:00 a 06:00 en mm
DESCASC
Precipitaciones de 06:00 a 12:00 en mm
DESCASC
Precipitaciones de 12:00 a 18:00 en mm
DESCASC
Precipitaciones de 18:00 a 24:00 en mm
DESCASC
20-09-2020 22.1 (15:50) 11.7 (08:30) 16.9 9.17 (21:00) 6.39 (20:30) 22.8 0 0 0 22.8
19-09-2020 18.6 (16:00) 12.1 (06:20) 15.4 8.89 (16:50) 6.94 (16:50) 0.4 0 0 0 0.4
18-09-2020 21.1 (14:50) 13 (07:20) 17.1 6.94 (14:50) 3.89 (13:00) 9.6 0.4 0 8.8 0.4
17-09-2020 25.7 (17:10) 15.5 (00:00) 20.6 13.33 (22:00) 10 (22:00) 2.2 0 0 0 2.2
16-09-2020 26.6 (17:30) 12 (00:00) 19.3 6.39 (17:40) 3.89 (20:10) 0 0 0 0 0
15-09-2020 24.5 (16:00) 14.2 (00:00) 19.3 7.5 (00:10) 4.72 (00:10) 0 0 0 0 0
14-09-2020 26.6 (14:50) 17.1 (00:00) 21.9 6.94 (16:00) 4.72 (06:00) 0 0 0 0 0
13-09-2020 32.6 (16:40) 18 (00:00) 25.3 8.33 (17:50) 6.11 (17:50) 0 0 0 0 0
12-09-2020 29.3 (16:50) 12.7 (00:00) 21 5.83 (16:20) 3.61 (16:20) 0 0 0 0 0
11-09-2020 29.2 (16:50) 11.6 (00:00) 20.4 8.61 (16:20) 3.61 (16:20) 0 0 0 0 0
10-09-2020 27.3 (16:30) 12.4 (00:00) 19.8 6.39 (16:00) 3.33 (15:10) 0 0 0 0 0
09-09-2020 27.3 (16:30) 11.8 (00:00) 19.5 5.83 (14:40) 3.61 (15:00) 0 0 0 0 0
08-09-2020 25.4 (17:30) 9.8 (00:00) 17.6 6.11 (16:00) 3.89 (16:00) 0 0 0 0 0
07-09-2020 22.7 (16:20) 10.5 (06:40) 16.6 13.61 (11:50) 7.78 (11:50) 0 0 0 0 0
06-09-2020 20.7 (16:10) 11.8 (00:00) 16.3 10.28 (12:50) 6.39 (11:40) 0 0 0 0 0
05-09-2020 21.8 (14:10) 14 (00:00) 17.9 10.28 (21:20) 6.11 (12:30) 0 0 0 0 0
04-09-2020 31 (15:50) 16.9 (00:00) 23.9 10.83 (16:40) 6.39 (19:00) 0 0 0 0 0
03-09-2020 29.5 (17:10) 13.3 (00:00) 21.4 6.39 (17:00) 3.61 (17:00) 0 0 0 0 0
02-09-2020 25.3 (17:00) 10.4 (00:00) 17.8 6.11 (18:40) 3.89 (00:30) 0 0 0 0 0
01-09-2020 22.9 (15:40) 11.5 (00:00) 17.2 7.22 (13:40) 4.17 (23:30) 0 0 0 0 0
31-08-2020 22.1 (16:20) 7.6 (00:00) 14.9 9.72 (14:20) 6.11 (16:00) 0 0 0 0 0
30-08-2020 17.1 (16:10) 8.4 (00:00) 12.8 6.67 (14:50) 4.17 (18:10) 2 2 0 0 0
29-08-2020 15.5 (16:40) 9 (00:00) 12.3 7.78 (16:40) 4.17 (00:10) 8.4 1.2 4.8 1.4 1
28-08-2020 18.8 (15:20) 9.6 (00:00) 14.2 8.61 (16:40) 6.11 (00:10) 0.2 0 0.2 0 0
27-08-2020 26 (16:10) 16.8 (00:00) 21.4 10.28 (23:40) 7.22 (23:40) 0 0 0 0 0
26-08-2020 28.4 (16:40) 16.1 (00:00) 22.3 10.28 (16:20) 3.89 (19:20) 0 0 0 0 0
25-08-2020 28 (17:30) 15.4 (00:00) 21.7 9.17 (15:50) 5.83 (15:40) 0 0 0 0 0
24-08-2020 28.3 (18:00) 12.4 (00:00) 20.3 6.39 (19:00) 4.72 (20:20) 0 0 0 0 0
23-08-2020 25.5 (16:40) 11.2 (00:00) 18.3 7.5 (18:40) 4.17 (19:00) 0 0 0 0 0

Gráficas

Temp. máximas Temp. mínimas Temp. medias Precipitaciones Rachas de viento máximas Velocidades máximas media en intervalos de 10 minutos

Datos horarios

Fecha y hora oficial Temperatura (ºC) Velocidad del viento (km/h) Dirección del viento Racha (km/h) Dirección de racha Precipitación (mm) Presión (hPa) Tendencia (hPa) Humedad (%)
2020-09-21 23:00:00 13.8 0 Calma 9 Norte 0 -- -- 93
2020-09-21 22:00:00 14.4 6 Norte 13 Noroeste 0 -- -- 90
2020-09-21 21:00:00 15.4 7 Noroeste 17 Noroeste 0 -- -- 86
2020-09-21 20:00:00 16.4 4 Noroeste 14 Norte 0 -- -- 82
2020-09-21 19:00:00 17.4 5 Oeste 14 Oeste 0 -- -- 79
2020-09-21 18:00:00 17.6 5 Norte 9 Norte 0 -- -- 78
2020-09-21 17:00:00 18 5 Nordeste 13 Este 0 -- -- 78
2020-09-21 16:00:00 17.2 3 Nordeste 9 Nordeste 0 -- -- 79
2020-09-21 15:00:00 16.3 3 Nordeste 9 Este 0 -- -- 88
2020-09-21 14:00:00 15.5 0 Calma 8 Oeste 0 -- -- 91
2020-09-21 13:00:00 15.2 3 Este 13 Este 0 -- -- 93
2020-09-21 12:00:00 14.6 0 Calma 9 Oeste 0 -- -- 95
2020-09-21 11:00:00 13.6 0 Calma 5 Nordeste 0 -- -- 97
2020-09-21 10:00:00 13.3 2 Sudoeste 12 Sudoeste 0 -- -- 97
2020-09-21 09:00:00 13.1 7 Sudoeste 18 Sudoeste 0 -- -- 97
2020-09-21 08:00:00 13.1 9 Sudoeste 13 Sudoeste 0 -- -- 97
2020-09-21 07:00:00 13.1 8 Sudoeste 20 Sudoeste 0.2 -- -- 98
2020-09-21 06:00:00 13.2 14 Sudoeste 24 Sudoeste 0 -- -- 97
2020-09-21 05:00:00 13.4 13 Sudoeste 22 Sudoeste 0.2 -- -- 97
2020-09-21 04:00:00 13.6 7 Oeste 17 Sudoeste 0.2 -- -- 97
2020-09-21 03:00:00 13.7 11 Sudoeste 19 Sudoeste 1.8 -- -- 97
2020-09-21 02:00:00 13.9 9 Sudoeste 20 Sudoeste 0 -- -- 96
2020-09-21 01:00:00 13.8 4 Sur 12 Sudeste 0 -- -- 97
2020-09-21 00:00:00 13.5 5 Este 9 Nordeste 0 -- -- 97
2020-09-20 23:00:00 13.5 5 Este 8 Este 3.8 -- -- 98
2020-09-20 22:00:00 13.2 0 Calma 23 Sudoeste 2.8 -- -- 97
2020-09-20 21:00:00 13.1 23 Sudoeste 33 Sudoeste 9.6 -- -- 93
2020-09-20 20:00:00 15.5 0 Calma 20 Sudoeste 6.6 -- -- 88
2020-09-20 19:00:00 17.9 4 Noroeste 16 Noroeste 0 -- -- 80
2020-09-20 18:00:00 19.5 4 Este 21 Oeste 0 -- -- 75
2020-09-20 17:00:00 21.5 10 Oeste 19 Oeste 0 -- -- 57
2020-09-20 16:00:00 21.2 11 Oeste 20 Oeste 0 -- -- 66
2020-09-20 15:00:00 20.5 7 Este 30 Norte 0 -- -- 69
2020-09-20 14:00:00 18.9 6 Este 14 Nordeste 0 -- -- 78
2020-09-20 13:00:00 16.7 4 Nordeste 14 Sudoeste 0 -- -- 90
2020-09-20 12:00:00 14 2 Sudoeste 9 Sudoeste 0 -- -- 100
2020-09-20 11:00:00 12.8 0 Calma 12 Oeste 0 -- -- 100
2020-09-20 10:00:00 12.9 7 Oeste 12 Oeste 0 -- -- 100
2020-09-20 09:00:00 11.9 0 Calma 5 Nordeste 0 -- -- 99
2020-09-20 08:00:00 11.8 0 Calma 8 Nordeste 0 -- -- 99
2020-09-20 07:00:00 11.9 0 Calma 6 Oeste 0 -- -- 99
2020-09-20 06:00:00 12.6 0 Calma 7 Nordeste 0 -- -- 99
2020-09-20 05:00:00 13 3 Nordeste 8 Nordeste 0 -- -- 99
2020-09-20 04:00:00 13.3 0 Calma 5 Este 0 -- -- 98
2020-09-20 03:00:00 13.6 0 Calma 8 Nordeste 0 -- -- 98
2020-09-20 02:00:00 14 5 Nordeste 8 Nordeste 0 -- -- 98
2020-09-20 01:00:00 14 0 Calma 5 Nordeste 0 -- -- 96
2020-09-20 00:00:00 14.6 4 Este 5 Este 0 -- -- 94
2020-09-19 23:00:00 14.8 3 Nordeste 6 Norte 0 -- -- 92
2020-09-19 22:00:00 15.5 0 Calma 4 Sudoeste 0 -- -- 86
2020-09-19 21:00:00 15.7 0 Calma 5 Oeste 0.4 -- -- 84
2020-09-19 20:00:00 16.4 0 Calma 6 Nordeste 0 -- -- 85
2020-09-19 19:00:00 17.2 0 Calma 14 Sudoeste 0 -- -- 81
2020-09-19 18:00:00 16.5 4 Nordeste 29 Oeste 0 -- -- 87
2020-09-19 17:00:00 16.7 25 Oeste 32 Oeste 0 -- -- 85
2020-09-19 16:00:00 18.6 3 Sudoeste 13 Oeste 0 -- -- 74
2020-09-19 15:00:00 18.1 7 Nordeste 14 Nordeste 0 -- -- 76
2020-09-19 14:00:00 16.8 3 Sudoeste 9 Sudoeste 0 -- -- 78
2020-09-19 13:00:00 15.6 0 Calma 8 Sudoeste 0 -- -- 83
2020-09-19 12:00:00 14.5 0 Calma 5 Sudoeste 0 -- -- 90
2020-09-19 11:00:00 14.3 0 Calma 8 Nordeste 0 -- -- 89
2020-09-19 10:00:00 14.2 5 Sudoeste 15 Sudoeste 0 -- -- 86
2020-09-19 09:00:00 13.1 6 Sudoeste 13 Sudoeste 0 -- -- 88
2020-09-19 08:00:00 12.8 0 Calma 20 Sudoeste 0 -- -- 92
2020-09-19 07:00:00 12.4 9 Sudoeste 21 Sudoeste 0 -- -- 89
2020-09-19 06:00:00 12.4 8 Oeste 12 Oeste 0 -- -- 92
2020-09-19 05:00:00 13.7 2 Este 8 Nordeste 0 -- -- 82
2020-09-19 04:00:00 13.5 3 Noroeste 8 Oeste 0 -- -- 86
2020-09-19 03:00:00 13.7 4 Nordeste 9 Sudeste 0 -- -- 88
2020-09-19 02:00:00 13.7 2 Este 8 Este 0 -- -- 92
2020-09-19 01:00:00 14.1 0 Calma 6 Este 0 -- -- 90
2020-09-19 00:00:00 14.4 4 Sudeste 6 Este 0 -- -- 88
2020-09-18 23:00:00 14.4 0 Calma 9 Nordeste 0 -- -- 93
2020-09-18 22:00:00 15 5 Nordeste 13 Este 0 -- -- 87
2020-09-18 21:00:00 15.1 4 Este 21 Nordeste 0 -- -- 92
2020-09-18 20:00:00 15.6 3 Nordeste 16 Este 0.2 -- -- 85
2020-09-18 19:00:00 16.9 8 Nordeste 23 Norte 0.2 -- -- 83
2020-09-18 18:00:00 17.4 6 Norte 18 Noroeste 7.6 -- -- 75
2020-09-18 17:00:00 19.4 9 Norte 13 Norte 1.2 -- -- 69
2020-09-18 16:00:00 20.4 3 Este 20 Oeste 0 -- -- 64
2020-09-18 15:00:00 20.3 14 Oeste 25 Oeste 0 -- -- 61
2020-09-18 14:00:00 19.6 8 Oeste 21 Sudoeste 0 -- -- 68
2020-09-18 13:00:00 18.6 14 Oeste 24 Oeste 0 -- -- 69
2020-09-18 12:00:00 17.4 5 Oeste 11 Oeste 0 -- -- 87
2020-09-18 11:00:00 16 4 Noroeste 12 Oeste 0 -- -- 94
2020-09-18 10:00:00 14.3 2 Sudoeste 9 Nordeste 0 -- -- 98
2020-09-18 09:00:00 13.5 4 Sudeste 9 Nordeste 0 -- -- 98
2020-09-18 08:00:00 13.1 0 Calma 11 Oeste 0 -- -- 98
2020-09-18 07:00:00 13.2 7 Oeste 14 Oeste 0 -- -- 96
2020-09-18 06:00:00 14.1 8 Sudoeste 15 Oeste 0 -- -- 97
2020-09-18 05:00:00 14.1 7 Noroeste 12 Noroeste 0 -- -- 96
2020-09-18 04:00:00 14.6 3 Norte 7 Norte 0 -- -- 96
2020-09-18 03:00:00 14.5 4 Norte 17 Sudoeste 0 -- -- 96
2020-09-18 02:00:00 15 4 Sudoeste 13 Sudoeste 0.4 -- -- 93
2020-09-18 01:00:00 14.9 6 Sudoeste 21 Sudoeste 0 -- -- 95
2020-09-18 00:00:00 15.5 19 Sudoeste 32 Sudoeste 2 -- -- 92
2020-09-17 23:00:00 16.6 17 Sudoeste 36 Sudoeste 0 -- -- 84
2020-09-17 22:00:00 19 36 Sudoeste 48 Sudoeste 0 -- -- 73
2020-09-17 21:00:00 20.1 25 Sudeste 44 Sudeste 0.2 -- -- 63
2020-09-17 20:00:00 22.7 13 Sudeste 23 Este 0 -- -- 53
2020-09-17 19:00:00 23.1 16 Este 27 Este 0 -- -- 52
2020-09-17 18:00:00 24 12 Este 26 Este 0 -- -- 50
2020-09-17 17:00:00 25.5 15 Este 32 Este 0 -- -- 46
2020-09-17 16:00:00 24.7 16 Este 33 Este 0 -- -- 48
2020-09-17 15:00:00 24.3 17 Este 37 Este 0 -- -- 49
2020-09-17 14:00:00 23.1 18 Sudeste 38 Este 0 -- -- 51
2020-09-17 13:00:00 21.8 15 Este 30 Este 0 -- -- 58
2020-09-17 12:00:00 20.9 13 Este 22 Este 0 -- -- 58
2020-09-17 11:00:00 20.4 9 Nordeste 23 Este 0 -- -- 56
2020-09-17 10:00:00 20.1 12 Sudeste 21 Sudeste 0 -- -- 56
2020-09-17 09:00:00 19.2 6 Sudeste 17 Este 0 -- -- 59
2020-09-17 08:00:00 18.5 3 Este 23 Sudeste 0 -- -- 63
2020-09-17 07:00:00 20.2 20 Sudeste 28 Nordeste 0 -- -- 55
2020-09-17 06:00:00 18 9 Sudeste 15 Sudeste 0 -- -- 72
2020-09-17 05:00:00 16.8 0 Calma 11 Nordeste 0 -- -- 81
2020-09-17 04:00:00 17.1 2 Este 16 Oeste 0 -- -- 80
2020-09-17 03:00:00 17.9 0 Calma 8 Nordeste 0 -- -- 77
2020-09-17 02:00:00 18.5 4 Este 10 Este 0 -- -- 74
2020-09-17 01:00:00 18.1 6 Nordeste 9 Este 0 -- -- 76
2020-09-17 00:00:00 18.8 5 Este 7 Este 0 -- -- 75
2020-09-16 23:00:00 18.9 6 Norte 12 Norte 0 -- -- 73
2020-09-16 22:00:00 19.6 8 Norte 15 Nordeste 0 -- -- 73
2020-09-16 21:00:00 20.5 11 Norte 20 Norte 0 -- -- 69
2020-09-16 20:00:00 21.6 12 Nordeste 19 Nordeste 0 -- -- 61
2020-09-16 19:00:00 23.1 9 Nordeste 22 Nordeste 0 -- -- 57
2020-09-16 18:00:00 25.4 5 Norte 23 Noroeste 0 -- -- 49
2020-09-16 17:00:00 26.3 6 Norte 14 Noroeste 0 -- -- 45
2020-09-16 16:00:00 25.1 5 Norte 13 Nordeste 0 -- -- 46
2020-09-16 15:00:00 24.5 5 Nordeste 13 Nordeste 0 -- -- 56
2020-09-16 14:00:00 24 7 Nordeste 13 Sudoeste 0 -- -- 55
2020-09-16 13:00:00 21.5 8 Oeste 15 Oeste 0 -- -- 59
2020-09-16 12:00:00 19.5 4 Sur 12 Oeste 0 -- -- 78
2020-09-16 11:00:00 16.1 8 Sudoeste 13 Oeste 0 -- -- 90
2020-09-16 10:00:00 15.7 0 Calma 6 Oeste 0 -- -- 90
2020-09-16 09:00:00 13.3 0 Calma 8 Noroeste 0 -- -- 93
2020-09-16 08:00:00 12 4 Oeste 9 Sur 0 -- -- 94
2020-09-16 07:00:00 13.5 2 Sudoeste 14 Este 0 -- -- 89
2020-09-16 06:00:00 14 8 Este 13 Sudeste 0 -- -- 91
2020-09-16 05:00:00 14.3 0 Calma 10 Este 0 -- -- 89
2020-09-16 04:00:00 14.7 6 Nordeste 9 Este 0 -- -- 93
2020-09-16 03:00:00 14.9 6 Este 9 Este 0 -- -- 93
2020-09-16 02:00:00 15.7 4 Este 7 Este 0 -- -- 92
2020-09-16 01:00:00 16.3 2 Nordeste 8 Sudeste 0 -- -- 91
2020-09-16 00:00:00 17 0 Calma 6 Este 0 -- -- 90
2020-09-15 23:00:00 17 3 Este 7 Este 0 -- -- 91
2020-09-15 22:00:00 18.1 0 Calma 9 Noroeste 0 -- -- 86
2020-09-15 21:00:00 18.7 5 Oeste 9 Noroeste 0 -- -- 82
2020-09-15 20:00:00 21.3 0 Calma 6 Norte 0 -- -- 71
2020-09-15 19:00:00 21.7 5 Norte 11 Nordeste 0 -- -- 69
2020-09-15 18:00:00 22.8 2 Nordeste 12 Oeste 0 -- -- 62
2020-09-15 17:00:00 23.4 5 Noroeste 19 Oeste 0 -- -- 57
2020-09-15 16:00:00 24.5 4 Sudeste 19 Oeste 0 -- -- 56
2020-09-15 15:00:00 22.8 6 Noroeste 19 Sudoeste 0 -- -- 59
2020-09-15 14:00:00 21.2 4 Nordeste 12 Nordeste 0 -- -- 73
2020-09-15 13:00:00 19.3 5 Nordeste 12 Nordeste 0 -- -- 83
2020-09-15 12:00:00 18.5 6 Nordeste 13 Oeste 0 -- -- 86
2020-09-15 11:00:00 16.9 6 Oeste 12 Noroeste 0 -- -- 94
2020-09-15 10:00:00 15.7 6 Sudoeste 11 Oeste 0 -- -- 98
2020-09-15 09:00:00 14.9 5 Oeste 13 Oeste 0 -- -- 98
2020-09-15 08:00:00 14.2 2 Nordeste 8 Nordeste 0 -- -- 97
2020-09-15 07:00:00 14.6 4 Oeste 8 Oeste 0 -- -- 97
2020-09-15 06:00:00 14.9 6 Este 8 Este 0 -- -- 97
2020-09-15 05:00:00 15.3 7 Nordeste 13 Oeste 0 -- -- 96
2020-09-15 04:00:00 15.4 4 Sudoeste 9 Oeste 0 -- -- 94
2020-09-15 03:00:00 16.1 0 Calma 8 Este 0 -- -- 93
2020-09-15 02:00:00 16.2 6 Este 10 Este 0 -- -- 94
2020-09-15 01:00:00 16.7 4 Este 27 Sudoeste 0 -- -- 90
2020-09-15 00:00:00 17.1 8 Sudeste 12 Sudoeste 0 -- -- 91
2020-09-14 23:00:00 17.8 0 Calma 11 Norte 0 -- -- 87
2020-09-14 22:00:00 18.4 5 Norte 16 Sur 0 -- -- 84
2020-09-14 21:00:00 18.9 0 Calma 20 Oeste 0 -- -- 82
2020-09-14 20:00:00 20.3 8 Oeste 10 Noroeste 0 -- -- 75
2020-09-14 19:00:00 22.4 6 Noroeste 24 Oeste 0 -- -- 66
2020-09-14 18:00:00 23.5 10 Oeste 19 Oeste 0 -- -- 59
2020-09-14 17:00:00 25.3 6 Oeste 19 Sudoeste 0 -- -- 53
2020-09-14 16:00:00 26.6 10 Oeste 25 Oeste 0 -- -- 47
2020-09-14 15:00:00 26.4 5 Nordeste 22 Sudoeste 0 -- -- 49
2020-09-14 14:00:00 23.9 2 Este 9 Norte 0 -- -- 52
2020-09-14 13:00:00 22.3 4 Norte 8 Nordeste 0 -- -- 58
2020-09-14 12:00:00 20 6 Nordeste 11 Norte 0 -- -- 58
2020-09-14 11:00:00 18.4 3 Noroeste 12 Oeste 0 -- -- 69
2020-09-14 10:00:00 18.9 3 Este 9 Sudeste 0 -- -- 60
2020-09-14 09:00:00 18.4 0 Calma 11 Oeste 0 -- -- 62
2020-09-14 08:00:00 17.8 9 Oeste 12 Oeste 0 -- -- 63
2020-09-14 07:00:00 17.3 10 Oeste 22 Oeste 0 -- -- 67
2020-09-14 06:00:00 18.8 17 Oeste 19 Oeste 0 -- -- 58
2020-09-14 05:00:00 19.7 5 Oeste 15 Oeste 0 -- -- 52
2020-09-14 04:00:00 21.6 5 Sudeste 16 Sudeste 0 -- -- 46
2020-09-14 03:00:00 22.4 6 Este 12 Este 0 -- -- 44
2020-09-14 02:00:00 22.8 5 Este 9 Este 0 -- -- 44
2020-09-14 01:00:00 23 4 Este 8 Oeste 0 -- -- 45
2020-09-14 00:00:00 23.6 5 Noroeste 9 Oeste 0 -- -- 45
2020-09-13 23:00:00 24.6 6 Oeste 8 Sudoeste 0 -- -- 40
2020-09-13 22:00:00 25.7 0 Calma 17 Sudoeste 0 -- -- 37
2020-09-13 21:00:00 25.6 12 Sudoeste 18 Sudoeste 0 -- -- 39
2020-09-13 20:00:00 26.3 17 Sudoeste 24 Sudoeste 0 -- -- 38
2020-09-13 19:00:00 31.2 7 Sudoeste 20 Sur 0 -- -- 30
2020-09-13 18:00:00 30.4 17 Sudoeste 30 Sudoeste 0 -- -- 30
2020-09-13 17:00:00 32.1 7 Sudoeste 18 Sudoeste 0 -- -- 26
2020-09-13 16:00:00 30.8 13 Sudoeste 25 Sudoeste 0 -- -- 30
2020-09-13 15:00:00 32 6 Sur 16 Sudeste 0 -- -- 28
2020-09-13 14:00:00 31 9 Este 19 Este 0 -- -- 30
2020-09-13 13:00:00 29.9 7 Este 21 Sudeste 0 -- -- 32
2020-09-13 12:00:00 27.7 14 Sudeste 23 Este 0 -- -- 32
2020-09-13 11:00:00 25.2 7 Sudeste 17 Sudeste 0 -- -- 38
2020-09-13 10:00:00 22.3 5 Sur 19 Sudeste 0 -- -- 44
2020-09-13 09:00:00 21.6 13 Sudeste 16 Sudeste 0 -- -- 38
2020-09-13 08:00:00 20.9 3 Sur 19 Sudeste 0 -- -- 44
2020-09-13 07:00:00 21.7 11 Sudeste 20 Sudeste 0 -- -- 40
2020-09-13 06:00:00 21.4 8 Sudeste 22 Sudeste 0 -- -- 41
2020-09-13 05:00:00 21.3 9 Sur 22 Sudeste 0 -- -- 44
2020-09-13 04:00:00 20.9 11 Sudeste 23 Sudeste 0 -- -- 45
2020-09-13 03:00:00 19.1 8 Este 11 Este 0 -- -- 56
2020-09-13 02:00:00 18 4 Nordeste 12 Nordeste 0 -- -- 69
2020-09-13 01:00:00 18.8 7 Nordeste 14 Nordeste 0 -- -- 68
2020-09-13 00:00:00 20.5 9 Este 17 Sudeste 0 -- -- 62
2020-09-12 23:00:00 21.6 8 Este 17 Sudeste 0 -- -- 59
2020-09-12 22:00:00 21.9 4 Este 13 Norte 0 -- -- 57
2020-09-12 21:00:00 23.1 8 Norte 20 Norte 0 -- -- 47
2020-09-12 20:00:00 24.9 11 Nordeste 19 Nordeste 0 -- -- 55
2020-09-12 19:00:00 27.3 6 Norte 18 Norte 0 -- -- 53
2020-09-12 18:00:00 28.8 8 Norte 16 Norte 0 -- -- 41
2020-09-12 17:00:00 29.3 8 Norte 21 Este 0 -- -- 35
2020-09-12 16:00:00 28.8 10 Nordeste 17 Nordeste 0 -- -- 39
2020-09-12 15:00:00 26.9 10 Nordeste 15 Este 0 -- -- 51
2020-09-12 14:00:00 24.7 9 Nordeste 15 Nordeste 0 -- -- 58
2020-09-12 13:00:00 22.9 7 Nordeste 13 Nordeste 0 -- -- 65
2020-09-12 12:00:00 20.7 7 Nordeste 11 Nordeste 0 -- -- 74
2020-09-12 11:00:00 17.8 4 Nordeste 10 Nordeste 0 -- -- 83
2020-09-12 10:00:00 15 4 Oeste 11 Oeste 0 -- -- 98
2020-09-12 09:00:00 13.6 2 Oeste 9 Oeste 0 -- -- 98
2020-09-12 08:00:00 12.9 0 Calma 8 Oeste 0 -- -- 97
2020-09-12 07:00:00 14 0 Calma 9 Este 0 -- -- 97
2020-09-12 06:00:00 14.6 4 Este 7 Norte 0 -- -- 97
2020-09-12 05:00:00 14.9 5 Este 9 Nordeste 0 -- -- 98
2020-09-12 04:00:00 15.3 5 Nordeste 10 Este 0 -- -- 98
2020-09-12 03:00:00 15.5 7 Este 10 Nordeste 0 -- -- 98
2020-09-12 02:00:00 15.8 9 Nordeste 12 Norte 0 -- -- 97
2020-09-12 01:00:00 17.1 8 Nordeste 14 Nordeste 0 -- -- 88
2020-09-12 00:00:00 18.1 8 Nordeste 14 Este 0 -- -- 85
2020-09-11 23:00:00 18.7 6 Este 9 Este 0 -- -- 84
2020-09-11 22:00:00 20 3 Nordeste 11 Norte 0 -- -- 77
2020-09-11 21:00:00 21.5 2 Este 11 Norte 0 -- -- 71
2020-09-11 20:00:00 24.9 3 Noroeste 17 Norte 0 -- -- 57
2020-09-11 19:00:00 26.7 10 Noroeste 19 Norte 0 -- -- 44
2020-09-11 18:00:00 28.1 9 Norte 18 Norte 0 -- -- 39
2020-09-11 17:00:00 29 8 Nordeste 31 Nordeste 0 -- -- 36
2020-09-11 16:00:00 29.1 12 Nordeste 20 Nordeste 0 -- -- 38
2020-09-11 15:00:00 27.8 9 Nordeste 17 Nordeste 0 -- -- 43
2020-09-11 14:00:00 25.3 10 Nordeste 14 Este 0 -- -- 55
2020-09-11 13:00:00 23.8 4 Nordeste 12 Oeste 0 -- -- 63
2020-09-11 12:00:00 21.1 3 Este 9 Sudoeste 0 -- -- 70
2020-09-11 11:00:00 18.3 0 Calma 9 Sur 0 -- -- 82
2020-09-11 10:00:00 14.1 0 Calma 12 Sudoeste 0 -- -- 100
2020-09-11 09:00:00 12.2 6 Oeste 11 Oeste 0 -- -- 99
2020-09-11 08:00:00 11.6 2 Oeste 13 Oeste 0 -- -- 99
2020-09-11 07:00:00 12.3 0 Calma 6 Este 0 -- -- 98
2020-09-11 06:00:00 13.4 0 Calma 7 Nordeste 0 -- -- 98
2020-09-11 05:00:00 13.7 0 Calma 8 Nordeste 0 -- -- 98
2020-09-11 04:00:00 14 0 Calma 10 Nordeste 0 -- -- 98
2020-09-11 03:00:00 14.1 7 Nordeste 9 Nordeste 0 -- -- 98
2020-09-11 02:00:00 14.5 5 Este 6 Este 0 -- -- 96
2020-09-11 01:00:00 15.4 6 Nordeste 12 Norte 0 -- -- 91
2020-09-11 00:00:00 16.7 6 Nordeste 12 Este 0 -- -- 86
2020-09-10 23:00:00 17.5 7 Este 10 Este 0 -- -- 81
2020-09-10 22:00:00 18.2 5 Nordeste 12 Nordeste 0 -- -- 79
2020-09-10 21:00:00 20 10 Norte 16 Nordeste 0 -- -- 70
2020-09-10 20:00:00 22.6 9 Norte 15 Norte 0 -- -- 61
2020-09-10 19:00:00 24.4 8 Noroeste 22 Noroeste 0 -- -- 55
2020-09-10 18:00:00 26.9 8 Noroeste 18 Norte 0 -- -- 49
2020-09-10 17:00:00 27.2 8 Norte 21 Nordeste 0 -- -- 46
2020-09-10 16:00:00 27 10 Nordeste 23 Nordeste 0 -- -- 40
2020-09-10 15:00:00 25.8 10 Este 19 Nordeste 0 -- -- 49
2020-09-10 14:00:00 24.1 7 Nordeste 14 Norte 0 -- -- 59
2020-09-10 13:00:00 22.4 5 Nordeste 17 Oeste 0 -- -- 66
2020-09-10 12:00:00 20.1 4 Sudeste 14 Norte 0 -- -- 73
2020-09-10 11:00:00 18.2 3 Este 9 Este 0 -- -- 76
2020-09-10 10:00:00 16.1 4 Nordeste 8 Nordeste 0 -- -- 86
2020-09-10 09:00:00 13.9 0 Calma 8 Noroeste 0 -- -- 95
2020-09-10 08:00:00 12.5 8 Noroeste 12 Noroeste 0 -- -- 95
2020-09-10 07:00:00 12.5 5 Norte 8 Noroeste 0 -- -- 95
2020-09-10 06:00:00 13.2 5 Nordeste 8 Norte 0 -- -- 93
2020-09-10 05:00:00 13.9 0 Calma 11 Norte 0 -- -- 92
2020-09-10 04:00:00 14 6 Nordeste 11 Nordeste 0 -- -- 94
2020-09-10 03:00:00 14.3 7 Este 10 Este 0 -- -- 94
2020-09-10 02:00:00 14.9 5 Nordeste 10 Este 0 -- -- 92
2020-09-10 01:00:00 15.4 7 Este 10 Este 0 -- -- 91
2020-09-10 00:00:00 15.4 5 Nordeste 10 Nordeste 0 -- -- 89
2020-09-09 23:00:00 16.3 7 Nordeste 10 Nordeste 0 -- -- 87
2020-09-09 22:00:00 17.5 9 Nordeste 17 Norte 0 -- -- 79
2020-09-09 21:00:00 19.3 9 Nordeste 17 Noroeste 0 -- -- 73
2020-09-09 20:00:00 22.1 9 Norte 18 Noroeste 0 -- -- 62
2020-09-09 19:00:00 24.3 8 Norte 15 Norte 0 -- -- 56
2020-09-09 18:00:00 25.9 6 Norte 17 Noroeste 0 -- -- 52
2020-09-09 17:00:00 26.9 8 Norte 16 Nordeste 0 -- -- 47
2020-09-09 16:00:00 26.9 9 Norte 20 Nordeste 0 -- -- 44
2020-09-09 15:00:00 25.9 13 Nordeste 21 Nordeste 0 -- -- 45
2020-09-09 14:00:00 24.1 5 Nordeste 14 Norte 0 -- -- 50
2020-09-09 13:00:00 22 8 Nordeste 14 Nordeste 0 -- -- 58
2020-09-09 12:00:00 21.2 5 Sudoeste 14 Oeste 0 -- -- 62
2020-09-09 11:00:00 17.9 2 Este 12 Sudeste 0 -- -- 71
2020-09-09 10:00:00 16.2 0 Calma 15 Este 0 -- -- 67
2020-09-09 09:00:00 13.9 8 Nordeste 12 Nordeste 0 -- -- 77
2020-09-09 08:00:00 12.8 4 Este 11 Este 0 -- -- 78
2020-09-09 07:00:00 12 6 Nordeste 8 Nordeste 0 -- -- 97
2020-09-09 06:00:00 12.4 5 Nordeste 8 Norte 0 -- -- 95
2020-09-09 05:00:00 13 0 Calma 5 Nordeste 0 -- -- 89
2020-09-09 04:00:00 13.1 4 Nordeste 9 Norte 0 -- -- 87
2020-09-09 03:00:00 13.7 6 Nordeste 11 Nordeste 0 -- -- 86
2020-09-09 02:00:00 13.6 7 Nordeste 10 Nordeste 0 -- -- 90
2020-09-09 01:00:00 15.2 5 Nordeste 14 Nordeste 0 -- -- 84
2020-09-09 00:00:00 15.6 9 Nordeste 14 Este 0 -- -- 83
2020-09-08 23:00:00 16 6 Este 9 Este 0 -- -- 81
2020-09-08 22:00:00 17.3 7 Este 12 Nordeste 0 -- -- 75
2020-09-08 21:00:00 19.5 8 Norte 14 Norte 0 -- -- 67
2020-09-08 20:00:00 22.6 6 Noroeste 18 Noroeste 0 -- -- 56
2020-09-08 19:00:00 24.4 7 Norte 12 Noroeste 0 -- -- 49
2020-09-08 18:00:00 25.1 5 Norte 14 Nordeste 0 -- -- 46
2020-09-08 17:00:00 25 8 Nordeste 22 Nordeste 0 -- -- 46
2020-09-08 16:00:00 24.6 14 Nordeste 22 Este 0 -- -- 45
2020-09-08 15:00:00 23.5 11 Este 21 Nordeste 0 -- -- 46
2020-09-08 14:00:00 21.6 8 Este 14 Este 0 -- -- 48
2020-09-08 13:00:00 20.3 6 Nordeste 12 Este 0 -- -- 54
2020-09-08 12:00:00 18.2 3 Este 10 Norte 0 -- -- 65
2020-09-08 11:00:00 15.6 5 Nordeste 9 Nordeste 0 -- -- 71
2020-09-08 10:00:00 13.3 6 Este 13 Nordeste 0 -- -- 79
2020-09-08 09:00:00 11.5 5 Nordeste 9 Nordeste 0 -- -- 83
2020-09-08 08:00:00 10.1 5 Nordeste 12 Este 0 -- -- 89
2020-09-08 07:00:00 10.1 6 Nordeste 9 Nordeste 0 -- -- 94
2020-09-08 06:00:00 10.4 5 Nordeste 6 Este 0 -- -- 94
2020-09-08 05:00:00 10.7 0 Calma 12 Noroeste 0 -- -- 91
2020-09-08 04:00:00 11.1 9 Noroeste 13 Noroeste 0 -- -- 90
2020-09-08 03:00:00 11.3 6 Norte 9 Norte 0 -- -- 90
2020-09-08 02:00:00 11.7 6 Norte 8 Norte 0 -- -- 91
2020-09-08 01:00:00 12.4 5 Nordeste 14 Este 0 -- -- 89
2020-09-08 00:00:00 13.4 9 Nordeste 17 Nordeste 0 -- -- 86
2020-09-07 23:00:00 13.6 6 Norte 19 Norte 0 -- -- 85
2020-09-07 22:00:00 14.6 11 Norte 25 Nordeste 0 -- -- 82
2020-09-07 21:00:00 16 10 Norte 21 Norte 0 -- -- 75
2020-09-07 20:00:00 18.2 11 Norte 25 Norte 0 -- -- 67
2020-09-07 19:00:00 20.4 11 Nordeste 25 Norte 0 -- -- 58
2020-09-07 18:00:00 21.6 11 Norte 22 Nordeste 0 -- -- 53
2020-09-07 17:00:00 22.4 14 Nordeste 29 Nordeste 0 -- -- 50
2020-09-07 16:00:00 22.5 14 Nordeste 34 Nordeste 0 -- -- 49
2020-09-07 15:00:00 22.2 19 Nordeste 35 Nordeste 0 -- -- 50
2020-09-07 14:00:00 21.3 15 Nordeste 28 Nordeste 0 -- -- 50
2020-09-07 13:00:00 19.1 20 Nordeste 41 Nordeste 0 -- -- 55
2020-09-07 12:00:00 17.5 28 Nordeste 49 Nordeste 0 -- -- 62
2020-09-07 11:00:00 15.3 22 Nordeste 35 Nordeste 0 -- -- 69
2020-09-07 10:00:00 13.5 14 Nordeste 29 Nordeste 0 -- -- 77
2020-09-07 09:00:00 12.2 11 Nordeste 21 Nordeste 0 -- -- 82
2020-09-07 08:00:00 10.6 6 Este 17 Sudeste 0 -- -- 85
2020-09-07 07:00:00 10.5 8 Sudeste 12 Este 0 -- -- 86
2020-09-07 06:00:00 10.6 15 Nordeste 22 Nordeste 0 -- -- 88
2020-09-07 05:00:00 10.7 7 Este 26 Nordeste 0 -- -- 87
2020-09-07 04:00:00 10.6 5 Nordeste 9 Nordeste 0 -- -- 88
2020-09-07 03:00:00 10.9 5 Nordeste 18 Norte 0 -- -- 86
2020-09-07 02:00:00 11.5 14 Nordeste 24 Nordeste 0 -- -- 85
2020-09-07 01:00:00 11.6 12 Nordeste 24 Nordeste 0 -- -- 87
2020-09-07 00:00:00 11.9 6 Nordeste 27 Nordeste 0 -- -- 87
2020-09-06 23:00:00 12 12 Norte 21 Norte 0 -- -- 85
2020-09-06 22:00:00 13.2 14 Nordeste 32 Este 0 -- -- 79
2020-09-06 21:00:00 14.2 15 Nordeste 33 Este 0 -- -- 75
2020-09-06 20:00:00 15.9 15 Nordeste 31 Nordeste 0 -- -- 70
2020-09-06 19:00:00 17.8 13 Nordeste 28 Nordeste 0 -- -- 65
2020-09-06 18:00:00 19.3 13 Nordeste 28 Nordeste 0 -- -- 61
2020-09-06 17:00:00 20 16 Nordeste 33 Nordeste 0 -- -- 59
2020-09-06 16:00:00 20.6 18 Nordeste 29 Nordeste 0 -- -- 57
2020-09-06 15:00:00 20.4 15 Nordeste 31 Nordeste 0 -- -- 58
2020-09-06 14:00:00 19.3 17 Nordeste 33 Nordeste 0 -- -- 63
2020-09-06 13:00:00 19.2 14 Nordeste 37 Nordeste 0 -- -- 63
2020-09-06 12:00:00 17.9 18 Nordeste 33 Nordeste 0 -- -- 68
2020-09-06 11:00:00 16.2 22 Nordeste 32 Nordeste 0 -- -- 74
2020-09-06 10:00:00 15.9 15 Nordeste 29 Nordeste 0 -- -- 77
2020-09-06 09:00:00 14.3 16 Nordeste 24 Nordeste 0 -- -- 85
2020-09-06 08:00:00 12.5 13 Norte 24 Nordeste 0 -- -- 92
2020-09-06 07:00:00 12.7 17 Nordeste 30 Nordeste 0 -- -- 92
2020-09-06 06:00:00 13 15 Nordeste 25 Nordeste 0 -- -- 92
2020-09-06 05:00:00 13.5 14 Nordeste 31 Nordeste 0 -- -- 90
2020-09-06 04:00:00 13.7 18 Nordeste 32 Nordeste 0 -- -- 90
2020-09-06 03:00:00 13.8 18 Nordeste 34 Este 0 -- -- 90
2020-09-06 02:00:00 13.9 16 Nordeste 29 Nordeste 0 -- -- 90
2020-09-06 01:00:00 14.2 14 Nordeste 25 Nordeste 0 -- -- 89
2020-09-06 00:00:00 14.6 17 Nordeste 30 Nordeste 0 -- -- 89
2020-09-05 23:00:00 14.7 12 Nordeste 29 Nordeste 0 -- -- 89
2020-09-05 22:00:00 15.1 19 Nordeste 37 Nordeste 0 -- -- 88
2020-09-05 21:00:00 15.8 13 Nordeste 30 Nordeste 0 -- -- 84
2020-09-05 20:00:00 17.1 14 Nordeste 30 Nordeste 0 -- -- 79
2020-09-05 19:00:00 19.1 16 Nordeste 34 Nordeste 0 -- -- 72
2020-09-05 18:00:00 20.4 15 Nordeste 30 Nordeste 0 -- -- 68
2020-09-05 17:00:00 20.8 17 Nordeste 33 Norte 0 -- -- 67
2020-09-05 16:00:00 21.1 14 Nordeste 27 Norte 0 -- -- 67
2020-09-05 15:00:00 21.2 14 Nordeste 31 Este 0 -- -- 67
2020-09-05 14:00:00 21.7 14 Nordeste 36 Nordeste 0 -- -- 66
2020-09-05 13:00:00 20.8 19 Nordeste 36 Nordeste 0 -- -- 70
2020-09-05 12:00:00 19.2 15 Nordeste 32 Nordeste 0 -- -- 77
2020-09-05 11:00:00 18.8 13 Nordeste 22 Nordeste 0 -- -- 80
2020-09-05 10:00:00 17.3 9 Nordeste 15 Nordeste 0 -- -- 88
2020-09-05 09:00:00 15.3 9 Norte 15 Norte 0 -- -- 98
2020-09-05 08:00:00 14.3 8 Norte 12 Noroeste 0 -- -- 97
2020-09-05 07:00:00 14 5 Norte 8 Norte 0 -- -- 95
2020-09-05 06:00:00 14.6 4 Este 13 Norte 0 -- -- 96
2020-09-05 05:00:00 14.3 4 Nordeste 15 Norte 0 -- -- 96
2020-09-05 04:00:00 14.8 5 Norte 21 Norte 0 -- -- 95
2020-09-05 03:00:00 14.9 10 Norte 18 Noroeste 0 -- -- 94
2020-09-05 02:00:00 15.3 5 Nordeste 8 Nordeste 0 -- -- 92
2020-09-05 01:00:00 16.5 8 Nordeste 9 Nordeste 0 -- -- 83
2020-09-05 00:00:00 17.8 8 Nordeste 11 Norte 0 -- -- 76
2020-09-04 23:00:00 19.4 4 Este 6 Nordeste 0 -- -- 67
2020-09-04 22:00:00 20.6 0 Calma 16 Noroeste 0 -- -- 66
2020-09-04 21:00:00 22.8 8 Oeste 19 Noroeste 0 -- -- 62
2020-09-04 20:00:00 25.4 11 Norte 32 Sudoeste 0 -- -- 57
2020-09-04 19:00:00 29.6 23 Sudoeste 32 Oeste 0 -- -- 29
2020-09-04 18:00:00 30.6 19 Oeste 39 Sudoeste 0 -- -- 28
2020-09-04 17:00:00 31 18 Sudoeste 39 Oeste 0 -- -- 29
2020-09-04 16:00:00 31 13 Oeste 34 Sudoeste 0 -- -- 31
2020-09-04 15:00:00 30.4 17 Sudoeste 32 Sur 0 -- -- 30
2020-09-04 14:00:00 30 8 Oeste 22 Noroeste 0 -- -- 34
2020-09-04 13:00:00 28.2 11 Oeste 16 Oeste 0 -- -- 42
2020-09-04 12:00:00 25.7 8 Oeste 13 Oeste 0 -- -- 49
2020-09-04 11:00:00 23.3 4 Sudeste 12 Sudeste 0 -- -- 53
2020-09-04 10:00:00 20.9 4 Este 9 Sudeste 0 -- -- 62
2020-09-04 09:00:00 19.1 6 Sudeste 14 Sudeste 0 -- -- 61
2020-09-04 08:00:00 17.4 0 Calma 9 Sudeste 0 -- -- 66
2020-09-04 07:00:00 17.5 3 Sur 13 Sudeste 0 -- -- 68
2020-09-04 06:00:00 17.6 6 Sudeste 19 Sudeste 0 -- -- 70
2020-09-04 05:00:00 17.5 8 Este 18 Este 0 -- -- 78
2020-09-04 04:00:00 17.2 0 Calma 11 Este 0 -- -- 82
2020-09-04 03:00:00 18.1 0 Calma 10 Sudeste 0 -- -- 79
2020-09-04 02:00:00 18.8 5 Este 11 Sudeste 0 -- -- 77
2020-09-04 01:00:00 19.6 5 Este 12 Este 0 -- -- 75
2020-09-04 00:00:00 19.8 4 Este 6 Sudeste 0 -- -- 73
2020-09-03 23:00:00 20.2 4 Nordeste 12 Nordeste 0 -- -- 71
2020-09-03 22:00:00 21.5 9 Norte 14 Norte 0 -- -- 67
2020-09-03 21:00:00 23.6 7 Noroeste 18 Oeste 0 -- -- 53
2020-09-03 20:00:00 26.6 6 Noroeste 14 Noroeste 0 -- -- 46
2020-09-03 19:00:00 29 8 Oeste 16 Oeste 0 -- -- 35
2020-09-03 18:00:00 29.1 7 Sudoeste 20 Oeste 0 -- -- 32
2020-09-03 17:00:00 29.3 13 Oeste 23 Oeste 0 -- -- 32
2020-09-03 16:00:00 29.1 7 Noroeste 20 Sudoeste 0 -- -- 37
2020-09-03 15:00:00 28 4 Este 22 Oeste 0 -- -- 39
2020-09-03 14:00:00 26.9 9 Oeste 19 Oeste 0 -- -- 39
2020-09-03 13:00:00 25.2 5 Oeste 15 Noroeste 0 -- -- 60
2020-09-03 12:00:00 22.4 5 Sudoeste 12 Sudoeste 0 -- -- 67
2020-09-03 11:00:00 19.5 3 Sudoeste 9 Sudoeste 0 -- -- 76
2020-09-03 10:00:00 17.5 2 Sur 9 Sur 0 -- -- 74
2020-09-03 09:00:00 15.2 6 Sur 13 Sudeste 0 -- -- 80
2020-09-03 08:00:00 13.4 5 Este 12 Este 0 -- -- 88
2020-09-03 07:00:00 13.4 2 Este 11 Este 0 -- -- 91
2020-09-03 06:00:00 13.5 0 Calma 5 Este 0 -- -- 92
2020-09-03 05:00:00 14.1 4 Este 12 Sudeste 0 -- -- 92
2020-09-03 04:00:00 14.1 0 Calma 9 Este 0 -- -- 93
2020-09-03 03:00:00 14.4 5 Nordeste 10 Nordeste 0 -- -- 93
2020-09-03 02:00:00 15.2 5 Este 16 Este 0 -- -- 91
2020-09-03 01:00:00 15.8 8 Este 17 Este 0 -- -- 89
2020-09-03 00:00:00 16.3 6 Este 17 Sudeste 0 -- -- 86
2020-09-02 23:00:00 16.3 6 Este 8 Este 0 -- -- 86
2020-09-02 22:00:00 17.6 0 Calma 10 Norte 0 -- -- 80
2020-09-02 21:00:00 19.3 7 Norte 17 Norte 0 -- -- 74
2020-09-02 20:00:00 21.8 7 Oeste 21 Noroeste 0 -- -- 66
2020-09-02 19:00:00 23.4 13 Noroeste 22 Noroeste 0 -- -- 60
2020-09-02 18:00:00 25 8 Norte 17 Nordeste 0 -- -- 49
2020-09-02 17:00:00 25.3 4 Nordeste 17 Nordeste 0 -- -- 47
2020-09-02 16:00:00 24.7 10 Nordeste 18 Nordeste 0 -- -- 51
2020-09-02 15:00:00 22.7 7 Este 17 Este 0 -- -- 56
2020-09-02 14:00:00 20.7 7 Este 17 Nordeste 0 -- -- 64
2020-09-02 13:00:00 18.7 3 Nordeste 12 Norte 0 -- -- 72
2020-09-02 12:00:00 16.6 6 Nordeste 14 Nordeste 0 -- -- 78
2020-09-02 11:00:00 14.1 3 Este 10 Nordeste 0 -- -- 89
2020-09-02 10:00:00 11.4 4 Norte 9 Nordeste 0 -- -- 99
2020-09-02 09:00:00 10.5 3 Nordeste 6 Este 0 -- -- 99
2020-09-02 08:00:00 10.7 0 Calma 4 Norte 0 -- -- 98
2020-09-02 07:00:00 10.8 2 Nordeste 9 Nordeste 0 -- -- 98
2020-09-02 06:00:00 10.5 3 Nordeste 9 Noroeste 0 -- -- 98
2020-09-02 05:00:00 10.6 4 Norte 10 Norte 0 -- -- 96
2020-09-02 04:00:00 10.9 5 Norte 15 Noroeste 0 -- -- 94
2020-09-02 03:00:00 11.4 8 Norte 12 Norte 0 -- -- 93
2020-09-02 02:00:00 11.8 7 Nordeste 16 Nordeste 0 -- -- 92
2020-09-02 01:00:00 12.4 10 Norte 21 Nordeste 0 -- -- 90
2020-09-02 00:00:00 12.9 13 Nordeste 24 Nordeste 0 -- -- 87
2020-09-01 23:00:00 13.1 12 Norte 19 Norte 0 -- -- 87
2020-09-01 22:00:00 14 9 Norte 21 Norte 0 -- -- 84
2020-09-01 21:00:00 15.3 8 Nordeste 20 Norte 0 -- -- 80
2020-09-01 20:00:00 17.3 7 Norte 23 Norte 0 -- -- 73
2020-09-01 19:00:00 19.4 6 Noroeste 24 Noroeste 0 -- -- 67
2020-09-01 18:00:00 20.7 9 Norte 22 Nordeste 0 -- -- 64
2020-09-01 17:00:00 22 8 Nordeste 22 Norte 0 -- -- 57
2020-09-01 16:00:00 22.9 8 Norte 22 Nordeste 0 -- -- 52
2020-09-01 15:00:00 22.6 9 Norte 19 Norte 0 -- -- 51
2020-09-01 14:00:00 21.7 8 Nordeste 26 Nordeste 0 -- -- 53
2020-09-01 13:00:00 20.1 12 Nordeste 21 Nordeste 0 -- -- 62
2020-09-01 12:00:00 17.6 6 Este 13 Nordeste 0 -- -- 71
2020-09-01 11:00:00 16.3 5 Noroeste 12 Noroeste 0 -- -- 74
2020-09-01 10:00:00 13.6 4 Sudoeste 9 Norte 0 -- -- 81
2020-09-01 09:00:00 12.4 4 Este 8 Norte 0 -- -- 84
2020-09-01 08:00:00 11.6 4 Nordeste 5 Nordeste 0 -- -- 84
2020-09-01 07:00:00 11.7 3 Noroeste 7 Noroeste 0 -- -- 82
2020-09-01 06:00:00 12.8 4 Oeste 13 Oeste 0 -- -- 81
2020-09-01 05:00:00 13.6 5 Este 12 Sudeste 0 -- -- 72
2020-09-01 04:00:00 13.3 5 Este 12 Este 0 -- -- 76
2020-09-01 03:00:00 13.2 6 Este 9 Este 0 -- -- 76
2020-09-01 02:00:00 13.7 0 Calma 6 Nordeste 0 -- -- 75
2020-09-01 01:00:00 14.3 0 Calma 4 Nordeste 0 -- -- 70
2020-09-01 00:00:00 14.8 4 Norte 8 Noroeste 0 -- -- 70
2020-08-31 23:00:00 15.4 3 Oeste 10 Noroeste 0 -- -- 66
2020-08-31 22:00:00 16.1 5 Oeste 8 Oeste 0 -- -- 60
2020-08-31 21:00:00 17 6 Oeste 12 Oeste 0 -- -- 56
2020-08-31 20:00:00 20.1 0 Calma 9 Sur 0 -- -- 45
2020-08-31 19:00:00 20.7 7 Sudoeste 22 Sudoeste 0 -- -- 41
2020-08-31 18:00:00 21 15 Sudoeste 28 Sudoeste 0 -- -- 38
2020-08-31 17:00:00 20.7 18 Sudoeste 31 Sudoeste 0 -- -- 38
2020-08-31 16:00:00 21.6 22 Sudoeste 35 Sudoeste 0 -- -- 36
2020-08-31 15:00:00 19.6 12 Sudoeste 35 Sudoeste 0 -- -- 45
2020-08-31 14:00:00 20.8 15 Sudoeste 34 Oeste 0 -- -- 42
2020-08-31 13:00:00 19.4 12 Sudoeste 25 Sudoeste 0 -- -- 42
2020-08-31 12:00:00 16.7 6 Este 13 Oeste 0 -- -- 62
2020-08-31 11:00:00 13.5 3 Sudoeste 10 Sudoeste 0 -- -- 74
2020-08-31 10:00:00 11.8 4 Sur 12 Oeste 0 -- -- 74
2020-08-31 09:00:00 10.3 0 Calma 10 Sur 0 -- -- 79
2020-08-31 08:00:00 8.3 0 Calma 8 Sudeste 0 -- -- 86
2020-08-31 07:00:00 7.6 4 Oeste 6 Oeste 0 -- -- 95
2020-08-31 06:00:00 7.6 3 Oeste 6 Oeste 0 -- -- 96
2020-08-31 05:00:00 8.2 0 Calma 4 Sudoeste 0 -- -- 94
2020-08-31 04:00:00 8.5 0 Calma 8 Nordeste 0 -- -- 93
2020-08-31 03:00:00 8.8 3 Nordeste 8 Este 0 -- -- 93
2020-08-31 02:00:00 9.1 5 Este 9 Sudeste 0 -- -- 91
2020-08-31 01:00:00 9.4 2 Este 8 Nordeste 0 -- -- 90
2020-08-31 00:00:00 9.5 6 Nordeste 15 Nordeste 0 -- -- 88
2020-08-30 23:00:00 10.2 12 Norte 17 Nordeste 0 -- -- 86
2020-08-30 22:00:00 10.6 9 Norte 19 Norte 0 -- -- 83
2020-08-30 21:00:00 11.9 11 Norte 21 Norte 0 -- -- 79
2020-08-30 20:00:00 13.6 12 Nordeste 23 Nordeste 0 -- -- 69
2020-08-30 19:00:00 15.2 14 Nordeste 24 Nordeste 0 -- -- 66
2020-08-30 18:00:00 15.8 10 Nordeste 24 Nordeste 0 -- -- 68
2020-08-30 17:00:00 14.7 10 Nordeste 20 Norte 0 -- -- 73
2020-08-30 16:00:00 16.7 11 Nordeste 23 Nordeste 0 -- -- 63
2020-08-30 15:00:00 15.3 9 Nordeste 24 Nordeste 0 -- -- 70
2020-08-30 14:00:00 14 11 Nordeste 20 Nordeste 0 -- -- 76
2020-08-30 13:00:00 12.8 7 Este 13 Este 0 -- -- 84
2020-08-30 12:00:00 11.3 4 Sur 17 Norte 0 -- -- 88
2020-08-30 11:00:00 11.3 4 Nordeste 16 Noroeste 0 -- -- 95
2020-08-30 10:00:00 10.1 0 Calma 5 Este 0 -- -- 94
2020-08-30 09:00:00 9.3 0 Calma 14 Noroeste 0 -- -- 93
2020-08-30 08:00:00 8.5 4 Noroeste 11 Norte 0 -- -- 93
2020-08-30 07:00:00 9.1 6 Noroeste 16 Noroeste 0 -- -- 97
2020-08-30 06:00:00 9.2 0 Calma 13 Noroeste 1.2 -- -- 98
2020-08-30 05:00:00 9.3 5 Oeste 7 Oeste 0 -- -- 97
2020-08-30 04:00:00 9.4 0 Calma 6 Norte 0 -- -- 97
2020-08-30 03:00:00 9.5 2 Noroeste 10 Norte 0 -- -- 97
2020-08-30 02:00:00 9.5 2 Oeste 10 Noroeste 0.8 -- -- 97
2020-08-30 01:00:00 9.5 4 Noroeste 8 Noroeste 0 -- -- 95
2020-08-30 00:00:00 9.1 3 Oeste 13 Norte 0 -- -- 92
2020-08-29 23:00:00 9.9 3 Norte 14 Norte 0.2 -- -- 92
2020-08-29 22:00:00 10.2 3 Noroeste 12 Nordeste 0 -- -- 94
2020-08-29 21:00:00 10.7 6 Norte 17 Nordeste 0.2 -- -- 92
2020-08-29 20:00:00 11.7 3 Oeste 23 Oeste 0.2 -- -- 91
2020-08-29 19:00:00 12.6 3 Nordeste 26 Noroeste 0.4 -- -- 87
2020-08-29 18:00:00 15.3 11 Noroeste 25 Nordeste 0 -- -- 69
2020-08-29 17:00:00 15 8 Norte 28 Noroeste 0 -- -- 72
2020-08-29 16:00:00 15.1 11 Noroeste 24 Norte 0 -- -- 81
2020-08-29 15:00:00 12.7 7 Noroeste 21 Noroeste 0.6 -- -- 94
2020-08-29 14:00:00 12.7 5 Nordeste 21 Nordeste 0.2 -- -- 94
2020-08-29 13:00:00 12.5 6 Norte 15 Norte 0.6 -- -- 97
2020-08-29 12:00:00 11 3 Norte 13 Oeste 1.8 -- -- 98
2020-08-29 11:00:00 10.5 9 Oeste 15 Oeste 0.8 -- -- 98
2020-08-29 10:00:00 10.1 4 Oeste 13 Oeste 1.6 -- -- 98
2020-08-29 09:00:00 9.9 9 Oeste 15 Oeste 0.4 -- -- 97
2020-08-29 08:00:00 9.7 14 Oeste 17 Oeste 0.2 -- -- 97
2020-08-29 07:00:00 9.4 7 Sudoeste 15 Oeste 0 -- -- 97
2020-08-29 06:00:00 9.5 13 Oeste 21 Oeste 0 -- -- 97
2020-08-29 05:00:00 10.1 11 Oeste 19 Oeste 0.6 -- -- 96
2020-08-29 04:00:00 10.3 12 Oeste 17 Oeste 0.2 -- -- 95
2020-08-29 03:00:00 10.4 10 Oeste 20 Oeste 0 -- -- 96
2020-08-29 02:00:00 10.3 13 Oeste 20 Sudoeste 0.4 -- -- 94
2020-08-29 01:00:00 10.7 12 Sudoeste 23 Sudoeste 0 -- -- 90
2020-08-29 00:00:00 10.8 16 Sudoeste 20 Sudoeste 0 -- -- 85
2020-08-28 23:00:00 9.9 9 Oeste 23 Sudoeste 0 -- -- 87
2020-08-28 22:00:00 11.6 5 Sudoeste 10 Noroeste 0 -- -- 85
2020-08-28 21:00:00 12.8 8 Noroeste 16 Noroeste 0 -- -- 79
2020-08-28 20:00:00 14.3 5 Noroeste 31 Sudeste 0 -- -- 79
2020-08-28 19:00:00 14.8 10 Sudoeste 27 Oeste 0 -- -- 75
2020-08-28 18:00:00 16.9 17 Noroeste 30 Oeste 0 -- -- 64
2020-08-28 17:00:00 16.8 15 Oeste 31 Oeste 0 -- -- 62
2020-08-28 16:00:00 18 8 Oeste 25 Oeste 0 -- -- 55
2020-08-28 15:00:00 18.3 17 Oeste 30 Oeste 0 -- -- 53
2020-08-28 14:00:00 15.4 16 Oeste 30 Oeste 0 -- -- 68
2020-08-28 13:00:00 15.8 15 Oeste 31 Oeste 0 -- -- 72
2020-08-28 12:00:00 15.7 8 Oeste 21 Oeste 0 -- -- 72
2020-08-28 11:00:00 13.9 4 Sudeste 15 Oeste 0.2 -- -- 83
2020-08-28 10:00:00 11.2 19 Oeste 25 Oeste 0 -- -- 94
2020-08-28 09:00:00 12.3 0 Calma 10 Oeste 0 -- -- 85
2020-08-28 08:00:00 11.3 10 Oeste 18 Oeste 0 -- -- 91
2020-08-28 07:00:00 11.6 17 Oeste 26 Oeste 0 -- -- 93
2020-08-28 06:00:00 13.4 11 Oeste 22 Oeste 0 -- -- 95
2020-08-28 05:00:00 13.9 17 Oeste 28 Oeste 0 -- -- 95
2020-08-28 04:00:00 15.1 4 Oeste 20 Oeste 0 -- -- 95
2020-08-28 03:00:00 15.6 9 Oeste 20 Oeste 0 -- -- 94
2020-08-28 02:00:00 16.3 13 Oeste 26 Sudoeste 0 -- -- 95
2020-08-28 01:00:00 16.8 14 Sudoeste 31 Sudoeste 0 -- -- 92
2020-08-28 00:00:00 16.8 22 Sudoeste 37 Sudoeste 0 -- -- 93
2020-08-27 23:00:00 18.7 19 Sudoeste 30 Sudoeste 0 -- -- 81
2020-08-27 22:00:00 19.3 19 Sudoeste 27 Sudoeste 0 -- -- 78
2020-08-27 21:00:00 20.8 12 Sudoeste 28 Oeste 0 -- -- 70
2020-08-27 20:00:00 22.3 18 Sudoeste 31 Oeste 0 -- -- 62
2020-08-27 19:00:00 23.9 17 Oeste 29 Oeste 0 -- -- 59
2020-08-27 18:00:00 24.2 13 Sudoeste 33 Sudoeste 0 -- -- 61
2020-08-27 17:00:00 25.7 19 Oeste 35 Oeste 0 -- -- 58
2020-08-27 16:00:00 25.7 16 Sudoeste 29 Oeste 0 -- -- 60
2020-08-27 15:00:00 25.4 14 Sudoeste 30 Sudoeste 0 -- -- 59
2020-08-27 14:00:00 24.5 11 Oeste 26 Sudoeste 0 -- -- 65
2020-08-27 13:00:00 24 16 Sudoeste 23 Sudoeste 0 -- -- 65
2020-08-27 12:00:00 23.2 12 Sudoeste 23 Sur 0 -- -- 67
2020-08-27 11:00:00 21.5 13 Sudoeste 21 Sur 0 -- -- 77
2020-08-27 10:00:00 20.3 9 Sudoeste 19 Sudoeste 0 -- -- 81
2020-08-27 09:00:00 18.8 9 Sur 17 Sur 0 -- -- 89
2020-08-27 08:00:00 17.8 9 Sudoeste 18 Sudoeste 0 -- -- 95
2020-08-27 07:00:00 18 8 Oeste 12 Noroeste 0 -- -- 96
2020-08-27 06:00:00 18.3 4 Sur 8 Sur 0 -- -- 93
2020-08-27 05:00:00 18.8 0 Calma 6 Sudoeste 0 -- -- 91
2020-08-27 04:00:00 19.3 0 Calma -- -- 0 -- -- 91
2020-08-27 03:00:00 19.5 0 Calma 4 Oeste 0 -- -- 90
2020-08-27 02:00:00 19.5 0 Calma 9 Oeste 0 -- -- 90
2020-08-27 01:00:00 19.7 5 Oeste 10 Oeste 0 -- -- 90
2020-08-27 00:00:00 19.7 2 Oeste 10 Oeste 0 -- -- 89
2020-08-26 23:00:00 20.1 9 Oeste 13 Oeste 0 -- -- 86
2020-08-26 22:00:00 22.3 0 Calma 5 Oeste 0 -- -- 71
2020-08-26 21:00:00 24.6 0 Calma 15 Oeste 0 -- -- 60
2020-08-26 20:00:00 26.5 10 Oeste 21 Oeste 0 -- -- 55
2020-08-26 19:00:00 26.8 13 Oeste 22 Oeste 0 -- -- 53
2020-08-26 18:00:00 27.9 11 Oeste 19 Oeste 0 -- -- 51
2020-08-26 17:00:00 28.3 7 Oeste 37 Sudeste 0 -- -- 53
2020-08-26 16:00:00 28.2 9 Oeste 20 Oeste 0 -- -- 50
2020-08-26 15:00:00 26.9 5 Oeste 25 Nordeste 0 -- -- 54
2020-08-26 14:00:00 25.9 5 Sudeste 12 Sur 0 -- -- 59
2020-08-26 13:00:00 23.8 7 Este 17 Norte 0 -- -- 67
2020-08-26 12:00:00 22.2 4 Este 12 Este 0 -- -- 73
2020-08-26 11:00:00 21.3 5 Nordeste 11 Nordeste 0 -- -- 75
2020-08-26 10:00:00 19.3 4 Este 10 Nordeste 0 -- -- 80
2020-08-26 09:00:00 18 0 Calma 10 Sudeste 0 -- -- 86
2020-08-26 08:00:00 16.5 8 Sudeste 12 Sudeste 0 -- -- 91
2020-08-26 07:00:00 16.3 0 Calma 9 Oeste 0 -- -- 96
2020-08-26 06:00:00 16.1 4 Oeste 6 Oeste 0 -- -- 94
2020-08-26 05:00:00 16.7 5 Este 6 Este 0 -- -- 95
2020-08-26 04:00:00 17.5 0 Calma 8 Oeste 0 -- -- 95
2020-08-26 03:00:00 17.5 8 Noroeste 10 Oeste 0 -- -- 94
2020-08-26 02:00:00 17.6 4 Este 9 Sudeste 0 -- -- 95
2020-08-26 01:00:00 17.7 0 Calma 6 Noroeste 0 -- -- 91
2020-08-26 00:00:00 18.2 4 Noroeste 10 Noroeste 0 -- -- 89
2020-08-25 23:00:00 19.1 4 Noroeste 15 Oeste 0 -- -- 84
2020-08-25 22:00:00 19.6 6 Oeste 21 Oeste 0 -- -- 81
2020-08-25 21:00:00 22.1 15 Oeste 23 Oeste 0 -- -- 70
2020-08-25 20:00:00 25.4 14 Oeste 23 Oeste 0 -- -- 49
2020-08-25 19:00:00 27.1 13 Oeste 27 Oeste 0 -- -- 47
2020-08-25 18:00:00 27.6 15 Oeste 27 Oeste 0 -- -- 47
2020-08-25 17:00:00 27.5 13 Sudoeste 26 Sudoeste 0 -- -- 45
2020-08-25 16:00:00 27 16 Sudoeste 33 Sudoeste 0 -- -- 44
2020-08-25 15:00:00 25.9 20 Sudoeste 31 Oeste 0 -- -- 47
2020-08-25 14:00:00 24.9 13 Sudoeste 26 Sudoeste 0 -- -- 50
2020-08-25 13:00:00 23.8 15 Sudoeste 29 Sudoeste 0 -- -- 49
2020-08-25 12:00:00 22.6 9 Sudoeste 23 Oeste 0 -- -- 41
2020-08-25 11:00:00 20.8 6 Oeste 15 Oeste 0 -- -- 50
2020-08-25 10:00:00 19.7 3 Sudeste 9 Sudeste 0 -- -- 59
2020-08-25 09:00:00 18.1 4 Este 8 Sudeste 0 -- -- 67
2020-08-25 08:00:00 16 0 Calma 4 Noroeste 0 -- -- 67
2020-08-25 07:00:00 15.8 3 Nordeste 12 Sudoeste 0 -- -- 70
2020-08-25 06:00:00 15.4 6 Oeste 14 Oeste 0 -- -- 74
2020-08-25 05:00:00 16.4 4 Sudoeste 19 Sudoeste 0 -- -- 69
2020-08-25 04:00:00 16.6 11 Sudoeste 14 Sudoeste 0 -- -- 71
2020-08-25 03:00:00 17.1 9 Oeste 17 Sudoeste 0 -- -- 69
2020-08-25 02:00:00 18 9 Sudoeste 17 Sudoeste 0 -- -- 65
2020-08-25 01:00:00 18.7 5 Sudoeste 15 Sur 0 -- -- 61
2020-08-25 00:00:00 19.6 7 Noroeste 10 Noroeste 0 -- -- 63
2020-08-24 23:00:00 21.3 0 Calma 8 Oeste 0 -- -- 59
2020-08-24 22:00:00 21.2 5 Sudoeste 9 Sudoeste 0 -- -- 56
2020-08-24 21:00:00 23.3 6 Sudoeste 22 Oeste 0 -- -- 44
2020-08-24 20:00:00 26.2 15 Sudoeste 23 Sudoeste 0 -- -- 40
2020-08-24 19:00:00 27.9 14 Oeste 23 Sudoeste 0 -- -- 42
2020-08-24 18:00:00 28.3 5 Oeste 23 Oeste 0 -- -- 37
2020-08-24 17:00:00 27.7 13 Oeste 23 Oeste 0 -- -- 32
2020-08-24 16:00:00 26.9 7 Oeste 18 Oeste 0 -- -- 37
2020-08-24 15:00:00 24.7 4 Este 16 Este 0 -- -- 50
2020-08-24 14:00:00 22.5 4 Este 13 Este 0 -- -- 60
2020-08-24 13:00:00 20.6 5 Norte 12 Norte 0 -- -- 70
2020-08-24 12:00:00 19.1 4 Noroeste 12 Este 0 -- -- 76
2020-08-24 11:00:00 16 8 Nordeste 14 Nordeste 0 -- -- 90
2020-08-24 10:00:00 13 8 Nordeste 13 Norte 0 -- -- 99
2020-08-24 09:00:00 12.6 3 Este 15 Este 0 -- -- 99
2020-08-24 08:00:00 12.4 5 Nordeste 9 Norte 0 -- -- 99
2020-08-24 07:00:00 12.5 3 Nordeste 10 Este 0 -- -- 99
2020-08-24 06:00:00 12.6 4 Este 13 Este 0 -- -- 99
2020-08-24 05:00:00 12.8 5 Nordeste 10 Norte 0 -- -- 98
2020-08-24 04:00:00 13 0 Calma 7 Norte 0 -- -- 98
2020-08-24 03:00:00 12.9 4 Nordeste 7 Nordeste 0 -- -- 98
2020-08-24 02:00:00 13 3 Nordeste 9 Nordeste 0 -- -- 97
2020-08-24 01:00:00 13.5 5 Nordeste 8 Este 0 -- -- 95
2020-08-24 00:00:00 14.6 2 Este 6 Este 0 -- -- 93
2020-08-23 23:00:00 15.4 0 Calma 8 Norte 0 -- -- 90
2020-08-23 22:00:00 16.2 6 Norte 14 Norte 0 -- -- 87
2020-08-23 21:00:00 18.1 6 Norte 15 Noroeste 0 -- -- 79
2020-08-23 20:00:00 19.6 9 Noroeste 24 Noroeste 0 -- -- 75
2020-08-23 19:00:00 21.4 15 Noroeste 27 Norte 0 -- -- 68
2020-08-23 18:00:00 24 9 Norte 18 Norte 0 -- -- 60
2020-08-23 17:00:00 25 7 Norte 21 Nordeste 0 -- -- 51
2020-08-23 16:00:00 25 9 Nordeste 22 Nordeste 0 -- -- 52
2020-08-23 15:00:00 23.9 6 Sur 17 Nordeste 0 -- -- 56
2020-08-23 14:00:00 21.7 9 Nordeste 19 Nordeste 0 -- -- 62
2020-08-23 13:00:00 19.7 6 Este 15 Nordeste 0 -- -- 72
2020-08-23 12:00:00 18.3 4 Nordeste 13 Nordeste 0 -- -- 77
2020-08-23 11:00:00 15.7 5 Nordeste 10 Este 0 -- -- 86
2020-08-23 10:00:00 12.5 5 Nordeste 9 Nordeste 0 -- -- 96
2020-08-23 09:00:00 11.9 0 Calma 6 Nordeste 0 -- -- 98
2020-08-23 08:00:00 11.4 2 Este 7 Este 0 -- -- 98
2020-08-23 07:00:00 11.3 4 Este 6 Este 0 -- -- 97
2020-08-23 06:00:00 11.8 4 Nordeste 6 Este 0 -- -- 96
2020-08-23 05:00:00 12.4 3 Este 5 Sudeste 0 -- -- 94
2020-08-23 04:00:00 12.5 4 Norte 6 Noroeste 0 -- -- 95
2020-08-23 03:00:00 12.4 0 Calma 8 Norte 0 -- -- 94
2020-08-23 02:00:00 12.5 0 Calma 12 Noroeste 0 -- -- 94
2020-08-23 01:00:00 12.8 9 Norte 13 Norte 0 -- -- 93
2020-08-23 00:00:00 13.4 4 Nordeste 8 Nordeste 0 -- -- 91